KEHR

Henderson City-County Airport

Henderson, Kentucky, USA
METAR KEHR 191456Z AUTO 11004KT 10SM CLR 26/22 A2996 RMK AO2 SLP150 T02610222 51003
Observed Flight Rules
Aug-19 @ 14:56 UTC (42 minutes ago) Visual Flight Rules
Wind Visibility Clouds
110° at 4 knots 10 miles
  • Clear skies
Temperatures Readings
Current 26°C / 79°F
Dewpoint 22°C / 72°F
Humidity 79%
Altimeter 29.96" Hg
Pressure 1015 hPa
Elevation 117
METAR KEHR 191456Z AUTO 11004KT 10SM CLR 26/22 A2996 RMK AO2 SLP150 T02610222 51003
Observed Flight Rules
Aug-19 @ 14:56 UTC
(42 minutes ago)
VFR
Wind Visibility
110° at 4 knots 10 miles
Clouds
  • Clear skies
Temperature Dewpoint
26°C / 79°F 22°C / 72°F
Humidity Altimeter Pressure
79% 29.96" Hg 1015 hPa